Time;durP1;ratioP1;P1;durP2;ratioP2;P2;SDS_P1;SDS_P2;PMS_P1;PMS_P2;Temp;Humidity;BMP_temperature;BMP_pressure;BME280_temperature;BME280_humidity;BME280_pressure;Samples;Min_cycle;Max_cycle;Signal;HPM_P1;HPM_P2
2023/09/10 01:11:38;;;;;;;29.60;23.92;;;;;;;18.38;100.00;101587.34;5029747;28;20061;-96
2023/09/10 01:14:15;;;;;;;29.87;23.20;;;;;;;18.36;100.00;101586.81;5031568;28;20468;-96
2023/09/10 01:16:50;;;;;;;28.73;24.47;;;;;;;18.34;100.00;101591.72;5012689;28;20312;-96
2023/09/10 01:19:37;;;;;;;29.02;22.92;;;;;;;18.10;100.00;101558.13;5014140;28;20072;-96
2023/09/10 01:22:28;;;;;;;28.70;22.80;;;;;;;18.06;100.00;101550.88;5013719;28;20034;-96
2023/09/10 01:24:54;;;;;;;31.00;22.80;;;;;;;18.15;100.00;101565.41;4999328;28;20030;-96
2023/09/10 01:27:20;;;;;;;34.88;24.73;;;;;;;18.01;100.00;101554.44;5011494;28;20039;-96
2023/09/10 01:29:46;;;;;;;27.83;23.37;;;;;;;18.25;100.00;101588.88;5009628;28;20398;-96
2023/09/10 01:32:23;;;;;;;36.15;24.85;;;;;;;17.94;100.00;101548.56;5011267;28;20117;-96
2023/09/10 01:34:55;;;;;;;33.10;24.65;;;;;;;18.21;100.00;101588.66;4996880;28;20022;-96
2023/09/10 01:37:34;;;;;;;32.75;24.80;;;;;;;17.95;100.00;101547.47;5015248;28;20014;-96
2023/09/10 01:40:06;;;;;;;34.85;27.58;;;;;;;17.88;100.00;101547.00;5014742;28;20028;-96
2023/09/10 01:42:34;;;;;;;33.40;25.90;;;;;;;17.89;100.00;101546.72;5013251;28;20026;-96
2023/09/10 01:45:01;;;;;;;33.88;26.20;;;;;;;17.99;100.00;101565.59;5012390;28;20039;-96
2023/09/10 01:47:27;;;;;;;35.63;27.40;;;;;;;18.00;100.00;101563.66;5011963;28;20014;-96
2023/09/10 01:49:53;;;;;;;34.37;26.30;;;;;;;17.91;100.00;101552.63;5013121;28;20097;-96
2023/09/10 01:52:18;;;;;;;41.85;29.20;;;;;;;18.04;100.00;101574.75;5013736;28;20015;-96
2023/09/10 01:54:50;;;;;;;39.30;29.57;;;;;;;17.85;100.00;101551.09;5014970;28;20022;-96
2023/09/10 01:57:16;;;;;;;33.63;27.88;;;;;;;17.95;100.00;101561.00;5015829;28;20053;-96
2023/09/10 01:59:41;;;;;;;34.08;28.67;;;;;;;17.88;100.00;101563.25;5015371;28;20466;-95
2023/09/10 02:02:07;;;;;;;36.13;27.90;;;;;;;17.92;100.00;101572.44;5543438;23;20090;-94
2023/09/10 02:04:33;;;;;;;35.00;28.50;;;;;;;17.82;100.00;101557.88;4997151;28;20050;-96
2023/09/10 02:06:58;;;;;;;37.60;29.23;;;;;;;17.81;100.00;101567.13;4999361;28;20066;-95
2023/09/10 02:09:24;;;;;;;39.08;31.25;;;;;;;17.88;100.00;101580.34;4995398;28;20015;-96
2023/09/10 02:11:49;;;;;;;36.70;30.43;;;;;;;17.76;100.00;101560.94;4994606;28;20027;-96
2023/09/10 02:14:15;;;;;;;39.13;30.53;;;;;;;17.76;100.00;101567.19;4994868;28;20093;-96
2023/09/10 02:16:40;;;;;;;40.25;29.02;;;;;;;17.82;100.00;101576.06;4993825;28;20086;-96
2023/09/10 02:19:07;;;;;;;39.90;30.30;;;;;;;17.72;100.00;101568.84;4995260;28;20015;-96
2023/09/10 02:21:32;;;;;;;38.28;30.67;;;;;;;17.70;100.00;101555.63;4994231;28;20042;-96
2023/09/10 02:24:02;;;;;;;41.97;30.88;;;;;;;17.75;100.00;101579.13;4988148;28;20023;-96
2023/09/10 02:26:28;;;;;;;35.70;29.07;;;;;;;17.91;100.00;101604.16;4997841;28;20046;-95
2023/09/10 02:28:53;;;;;;;39.70;29.97;;;;;;;17.75;100.00;101578.31;4991736;28;20390;-96
2023/09/10 02:31:21;;;;;;;38.60;30.70;;;;;;;17.58;100.00;101559.81;4992632;28;20031;-96
2023/09/10 02:33:47;;;;;;;39.03;30.70;;;;;;;17.61;100.00;101562.75;4994151;28;20031;-96
2023/09/10 02:36:13;;;;;;;45.23;33.33;;;;;;;17.84;100.00;101606.41;4996256;28;20360;-96
2023/09/10 02:38:38;;;;;;;39.37;31.57;;;;;;;17.59;100.00;101564.94;4990594;28;20034;-96
2023/09/10 02:41:04;;;;;;;39.30;30.50;;;;;;;17.59;100.00;101559.50;4993511;28;20018;-96
2023/09/10 02:43:29;;;;;;;36.40;29.57;;;;;;;17.48;100.00;101545.25;4977212;28;20062;-96
2023/09/10 02:45:55;;;;;;;41.20;32.03;;;;;;;17.51;100.00;101563.66;4992991;28;20027;-96
2023/09/10 02:48:21;;;;;;;40.60;31.20;;;;;;;17.54;100.00;101564.97;4994730;28;20078;-96
2023/09/10 02:50:46;;;;;;;41.20;32.33;;;;;;;17.51;100.00;101562.88;4996048;28;20019;-96
2023/09/10 02:53:12;;;;;;;40.60;29.90;;;;;;;17.48;100.00;101566.16;4996272;28;20031;-96
2023/09/10 02:55:37;;;;;;;40.87;31.67;;;;;;;17.43;100.00;101564.31;4994263;28;20030;-95
2023/09/10 02:58:03;;;;;;;39.47;30.42;;;;;;;17.43;100.00;101552.63;4994405;28;20050;-96
2023/09/10 03:00:28;;;;;;;41.93;31.93;;;;;;;17.41;100.00;101567.28;4994301;28;20150;-96
2023/09/10 03:02:55;;;;;;;42.10;33.38;;;;;;;17.41;100.00;101555.66;4994415;28;20031;-96
2023/09/10 03:05:21;;;;;;;41.70;32.80;;;;;;;17.45;100.00;101572.91;4975130;28;20047;-96
2023/09/10 03:07:54;;;;;;;40.63;30.27;;;;;;;17.41;100.00;101564.56;4972674;28;20346;-96
2023/09/10 03:10:19;;;;;;;39.80;32.95;;;;;;;17.42;100.00;101568.09;4990005;28;20033;-96
2023/09/10 03:12:45;;;;;;;45.72;33.38;;;;;;;17.34;100.00;101558.69;4989320;28;20031;-96
2023/09/10 03:15:11;;;;;;;39.13;30.13;;;;;;;17.37;100.00;101571.66;4990243;28;20050;-96
2023/09/10 03:17:39;;;;;;;41.05;30.90;;;;;;;17.27;100.00;101558.22;4992974;28;20093;-96
2023/09/10 03:20:09;;;;;;;40.08;32.20;;;;;;;17.43;100.00;101579.72;4975430;28;20029;-96
2023/09/10 03:22:36;;;;;;;39.87;33.13;;;;;;;17.48;100.00;101583.19;4994978;28;20025;-96
2023/09/10 03:25:02;;;;;;;47.10;34.90;;;;;;;17.29;100.00;101555.22;4994111;28;20294;-96
2023/09/10 03:27:39;;;;;;;47.10;35.85;;;;;;;17.59;100.00;101604.78;4993252;28;20359;-96
2023/09/10 03:30:05;;;;;;;54.45;41.92;;;;;;;17.35;100.00;101559.50;4995084;28;20037;-96
2023/09/10 03:32:31;;;;;;;51.03;38.78;;;;;;;17.26;100.00;101551.19;4977642;28;20019;-96
2023/09/10 03:34:56;;;;;;;51.70;39.13;;;;;;;17.30;100.00;101557.66;4993594;28;20042;-96
2023/09/10 03:37:22;;;;;;;52.37;39.20;;;;;;;17.28;100.00;101559.00;4993873;28;20070;-95
2023/09/10 03:39:49;;;;;;;47.58;37.65;;;;;;;17.28;100.00;101556.28;4996201;28;20037;-96
2023/09/10 03:42:16;;;;;;;49.43;38.20;;;;;;;17.50;100.00;101605.38;4989380;28;20022;-95
2023/09/10 03:44:42;;;;;;;49.20;37.60;;;;;;;17.21;100.00;101554.75;4994720;28;20290;-96
2023/09/10 03:47:07;;;;;;;45.97;37.80;;;;;;;17.20;100.00;101552.31;4990011;28;20089;-96
2023/09/10 03:49:33;;;;;;;46.47;38.58;;;;;;;17.32;100.00;101577.13;4991940;28;20027;-96
2023/09/10 03:51:59;;;;;;;52.23;37.50;;;;;;;17.48;100.00;101595.94;4990820;28;20404;-96
2023/09/10 03:54:24;;;;;;;50.00;36.80;;;;;;;17.23;100.00;101557.16;4990780;28;20027;-96
2023/09/10 03:56:50;;;;;;;48.30;37.10;;;;;;;17.15;100.00;101541.53;5068327;23;20306;-96
2023/09/10 03:59:15;;;;;;;48.33;38.30;;;;;;;17.17;100.00;101553.69;4995374;28;20064;-96
2023/09/10 04:01:41;;;;;;;50.88;38.50;;;;;;;17.19;100.00;101556.09;4995217;28;20014;-96
2023/09/10 04:04:07;;;;;;;53.27;40.47;;;;;;;17.16;100.00;101552.09;4978285;28;20090;-96
2023/09/10 04:06:32;;;;;;;52.50;41.10;;;;;;;17.26;100.00;101562.00;4977940;28;20070;-96
2023/09/10 04:08:59;;;;;;;56.63;41.10;;;;;;;17.15;100.00;101533.41;4998439;28;20066;-96
2023/09/10 04:11:25;;;;;;;58.15;42.13;;;;;;;17.10;100.00;101540.50;4998502;28;20019;-96
2023/09/10 04:13:50;;;;;;;58.15;43.60;;;;;;;17.05;100.00;101542.44;4981770;28;20002;-96
2023/09/10 04:16:16;;;;;;;58.30;44.23;;;;;;;17.14;100.00;101554.25;4999219;28;20066;-96
2023/09/10 04:18:41;;;;;;;65.25;45.10;;;;;;;17.05;100.00;101543.25;4998681;28;20082;-96
2023/09/10 04:21:07;;;;;;;55.80;42.73;;;;;;;17.02;100.00;101541.09;4998494;28;20022;-96
2023/09/10 04:23:35;;;;;;;67.55;49.38;;;;;;;17.03;100.00;101548.13;4999064;28;20018;-96
2023/09/10 04:26:02;;;;;;;61.83;45.28;;;;;;;17.09;100.00;101549.72;4995197;28;20034;-95
2023/09/10 04:28:27;;;;;;;59.97;44.80;;;;;;;17.22;100.00;101566.38;4992662;28;20031;-96
2023/09/10 04:30:53;;;;;;;69.43;50.63;;;;;;;17.32;100.00;101577.13;4993075;28;20285;-97
2023/09/10 04:33:19;;;;;;;61.30;46.33;;;;;;;17.31;100.00;101580.94;4990447;28;20035;-96
2023/09/10 04:35:57;;;;;;;65.07;49.13;;;;;;;17.20;100.00;101563.97;4989957;28;20031;-96
2023/09/10 04:38:24;;;;;;;64.78;47.42;;;;;;;17.06;100.00;101547.56;4990816;28;20026;-96
2023/09/10 04:40:49;;;;;;;64.00;48.78;;;;;;;17.19;100.00;101561.53;4971210;28;20030;-96
2023/09/10 04:43:15;;;;;;;72.70;49.93;;;;;;;17.04;100.00;101538.13;4989608;28;20023;-96
2023/09/10 04:45:40;;;;;;;66.10;47.33;;;;;;;17.04;100.00;101548.94;4987440;28;20533;-96
2023/09/10 04:48:06;;;;;;;66.07;48.33;;;;;;;16.98;100.00;101541.94;4989322;28;20118;-96
2023/09/10 04:50:31;;;;;;;63.88;48.17;;;;;;;17.00;100.00;101545.19;4992432;28;20111;-96
2023/09/10 04:53:00;;;;;;;67.67;50.00;;;;;;;17.06;100.00;101558.38;4981780;28;20034;-96
2023/09/10 04:55:25;;;;;;;65.93;49.33;;;;;;;16.93;100.00;101537.38;4998723;28;20078;-96
2023/09/10 04:57:51;;;;;;;62.00;47.83;;;;;;;17.19;100.00;101580.47;5000555;28;20039;-96
2023/09/10 05:00:17;;;;;;;67.72;49.28;;;;;;;16.88;100.00;101537.41;5000428;28;20027;-96
2023/09/10 05:02:45;;;;;;;60.73;46.10;;;;;;;16.98;100.00;101544.66;5053444;23;20356;-96
2023/09/10 05:05:11;;;;;;;63.50;47.85;;;;;;;16.86;100.00;101543.09;4999012;28;20031;-96
2023/09/10 05:07:36;;;;;;;73.53;51.33;;;;;;;16.87;100.00;101544.72;4997387;28;20031;-96
2023/09/10 05:10:02;;;;;;;66.77;51.23;;;;;;;16.90;100.00;101549.56;4996782;28;20038;-96
2023/09/10 05:12:27;;;;;;;67.45;51.35;;;;;;;17.00;100.00;101570.34;4994140;28;20031;-96
2023/09/10 05:14:53;;;;;;;67.90;51.57;;;;;;;17.02;100.00;101578.19;4993437;28;20366;-96
2023/09/10 05:17:19;;;;;;;71.93;53.80;;;;;;;17.20;100.00;101592.94;4994884;28;20022;-96
2023/09/10 05:19:47;;;;;;;74.83;54.87;;;;;;;17.08;100.00;101569.75;4997812;28;20037;-96
2023/09/10 05:22:12;;;;;;;70.33;51.97;;;;;;;17.08;100.00;101569.75;4992705;28;20689;-96
2023/09/10 05:24:38;;;;;;;71.25;54.50;;;;;;;17.04;100.00;101552.44;4995514;28;20058;-96
2023/09/10 05:27:04;;;;;;;78.20;57.53;;;;;;;17.05;100.00;101554.06;4973246;28;20031;-96
2023/09/10 05:29:29;;;;;;;69.93;52.93;;;;;;;17.21;100.00;101570.19;4990470;28;20210;-96
2023/09/10 05:31:55;;;;;;;74.47;53.35;;;;;;;17.08;100.00;101558.91;4990699;28;20027;-96
2023/09/10 05:34:21;;;;;;;76.97;54.67;;;;;;;17.18;100.00;101565.31;4990277;28;20035;-96
2023/09/10 05:36:48;;;;;;;76.13;56.92;;;;;;;17.20;100.00;101561.25;4991295;28;20662;-96
2023/09/10 05:39:13;;;;;;;72.10;52.88;;;;;;;17.29;100.00;101566.88;4983599;28;20026;-95
2023/09/10 05:41:39;;;;;;;73.30;53.20;;;;;;;17.44;100.00;101584.06;4977010;28;20023;-96
2023/09/10 05:44:04;;;;;;;78.73;56.47;;;;;;;17.60;100.00;101609.91;4980070;28;20031;-96
2023/09/10 05:46:30;;;;;;;77.47;56.13;;;;;;;17.56;100.00;101592.59;4977942;28;20077;-96
2023/09/10 05:48:55;;;;;;;67.67;51.17;;;;;;;17.68;100.00;101603.88;4977434;28;20026;-95
2023/09/10 05:51:21;;;;;;;70.40;52.57;;;;;;;17.75;100.00;101602.69;4982387;28;20122;-96
2023/09/10 05:53:51;;;;;;;69.95;49.95;;;;;;;17.80;100.00;101605.38;4981211;28;20110;-96
2023/09/10 05:56:16;;;;;;;72.95;53.03;;;;;;;17.82;100.00;101600.47;4980064;28;20039;-96
2023/09/10 05:58:43;;;;;;;66.67;50.37;;;;;;;17.88;100.00;101603.91;4965766;28;20027;-96
2023/09/10 06:01:09;;;;;;;67.95;48.85;;;;;;;17.93;100.00;101603.88;4967503;28;20117;-96
2023/09/10 06:03:34;;;;;;;68.20;50.80;;;;;;;17.97;100.00;101608.41;4982428;28;20030;-96
2023/09/10 06:06:02;;;;;;;64.83;48.57;;;;;;;18.09;100.00;101620.78;4982117;28;20034;-96
2023/09/10 06:08:30;;;;;;;69.43;50.67;;;;;;;18.15;100.00;101619.63;4981948;28;20023;-96
2023/09/10 06:10:56;;;;;;;69.60;50.70;;;;;;;18.22;100.00;101619.28;4982103;28;20034;-96
2023/09/10 06:13:21;;;;;;;64.40;46.97;;;;;;;18.25;100.00;101624.13;4961761;28;20019;-96
2023/09/10 06:15:47;;;;;;;64.63;47.28;;;;;;;18.30;100.00;101614.00;4974567;28;20031;-96
2023/09/10 06:18:13;;;;;;;60.47;46.95;;;;;;;18.32;100.00;101613.75;4984221;28;20163;-96
2023/09/10 06:20:38;;;;;;;67.30;47.30;;;;;;;18.48;100.00;101630.59;4979880;28;20042;-96
2023/09/10 06:23:04;;;;;;;67.40;49.90;;;;;;;18.54;100.00;101625.91;4992789;28;20114;-96
2023/09/10 06:25:29;;;;;;;64.43;47.10;;;;;;;18.66;100.00;101641.75;4977462;28;20030;-96
2023/09/10 06:27:54;;;;;;;68.10;50.42;;;;;;;18.61;100.00;101621.75;4960217;28;20023;-96
2023/09/10 06:30:20;;;;;;;66.47;48.80;;;;;;;18.79;100.00;101634.81;4960598;28;20057;-96
2023/09/10 06:32:49;;;;;;;59.45;45.67;;;;;;;18.87;100.00;101637.66;4964490;28;20058;-96
2023/09/10 06:35:15;;;;;;;61.93;46.80;;;;;;;18.91;100.00;101638.69;4991538;28;20026;-96
2023/09/10 06:37:40;;;;;;;64.77;46.33;;;;;;;19.05;100.00;101644.22;4994072;28;20317;-96
2023/09/10 06:40:06;;;;;;;65.30;47.47;;;;;;;19.10;100.00;101637.06;4976295;28;20105;-96
2023/09/10 06:42:31;;;;;;;65.00;47.83;;;;;;;19.13;100.00;101631.88;4974886;28;20408;-96
2023/09/10 06:44:57;;;;;;;61.33;45.80;;;;;;;19.26;100.00;101637.63;4975653;28;20034;-96
2023/09/10 06:47:22;;;;;;;58.77;44.67;;;;;;;19.37;100.00;101650.75;4974865;28;20285;-95
2023/09/10 06:49:47;;;;;;;67.20;45.70;;;;;;;19.47;100.00;101647.06;4976452;28;20390;-96
2023/09/10 06:52:13;;;;;;;61.60;45.50;;;;;;;19.48;100.00;101635.09;4976392;28;20022;-96
2023/09/10 06:54:38;;;;;;;58.53;44.07;;;;;;;19.63;100.00;101649.50;4976084;28;20030;-96
2023/09/10 06:57:04;;;;;;;57.23;40.17;;;;;;;19.64;100.00;101637.53;4958599;28;20031;-96
2023/09/10 06:59:29;;;;;;;57.05;42.33;;;;;;;19.76;100.00;101640.56;4977491;28;20035;-96
2023/09/10 07:01:54;;;;;;;55.10;42.40;;;;;;;19.93;100.00;101647.34;4975537;28;20027;-96
2023/09/10 07:04:22;;;;;;;53.37;39.90;;;;;;;20.00;100.00;101653.19;4975816;28;20026;-96
2023/09/10 07:06:49;;;;;;;53.85;40.63;;;;;;;20.06;100.00;101651.19;4975016;28;20030;-96
2023/09/10 07:09:22;;;;;;;48.70;38.55;;;;;;;20.15;100.00;101646.66;4980080;28;20042;-96
2023/09/10 07:11:51;;;;;;;53.63;38.53;;;;;;;20.25;100.00;101651.09;4975430;28;20034;-96
2023/09/10 07:14:18;;;;;;;48.00;36.72;;;;;;;20.38;100.00;101655.69;4977596;28;20285;-96
2023/09/10 07:16:44;;;;;;;50.78;37.35;;;;;;;20.40;100.00;101641.78;4979832;28;20057;-96
2023/09/10 07:19:10;;;;;;;46.28;35.10;;;;;;;20.48;100.00;101646.50;4978783;28;20130;-96
2023/09/10 07:21:35;;;;;;;44.60;33.27;;;;;;;20.63;100.00;101653.53;4975844;28;20058;-96
2023/09/10 07:24:03;;;;;;;46.43;32.67;;;;;;;20.69;100.00;101649.56;4975992;28;20109;-96
2023/09/10 07:26:28;;;;;;;50.00;32.03;;;;;;;20.86;100.00;101661.75;4976795;28;20023;-96
2023/09/10 07:28:54;;;;;;;39.07;30.23;;;;;;;20.95;100.00;101657.19;4980899;28;20023;-96
2023/09/10 07:31:19;;;;;;;43.63;29.57;;;;;;;21.03;100.00;101661.91;4980813;28;20097;-96
2023/09/10 07:33:44;;;;;;;41.00;28.90;;;;;;;21.14;100.00;101661.66;4983843;28;20006;-96
2023/09/10 07:36:10;;;;;;;40.20;28.92;;;;;;;21.21;100.00;101655.78;4991781;28;20509;-96
2023/09/10 07:38:35;;;;;;;36.83;29.10;;;;;;;21.27;100.00;101655.34;4984516;28;20026;-96
2023/09/10 07:41:00;;;;;;;40.83;28.00;;;;;;;21.43;100.00;101655.78;4991990;28;20038;-95
2023/09/10 07:43:26;;;;;;;36.57;28.27;;;;;;;21.55;100.00;101670.75;4986301;28;20031;-96
2023/09/10 07:45:53;;;;;;;35.25;27.77;;;;;;;21.66;100.00;101669.38;4964211;28;20089;-96
2023/09/10 07:48:18;;;;;;;36.97;27.30;;;;;;;21.75;100.00;101664.78;4982145;28;20023;-96
2023/09/10 07:50:54;;;;;;;37.37;26.83;;;;;;;21.83;100.00;101654.19;4982295;28;20285;-96
2023/09/10 07:53:20;;;;;;;36.20;26.42;;;;;;;21.89;100.00;101658.41;4950427;28;20051;-96
2023/09/10 07:55:54;;;;;;;35.53;26.83;;;;;;;22.00;100.00;101657.00;4967864;28;20441;-96
2023/09/10 07:58:20;;;;;;;32.90;24.93;;;;;;;22.10;100.00;101666.81;4972982;28;20309;-96
2023/09/10 08:00:47;;;;;;;33.63;25.75;;;;;;;22.22;100.00;101669.75;4995288;28;20046;-96
2023/09/10 08:03:14;;;;;;;36.45;23.40;;;;;;;22.33;100.00;101675.72;4997194;28;20030;-95
2023/09/10 08:05:39;;;;;;;33.40;22.48;;;;;;;22.37;100.00;101667.69;4996772;28;20027;-96
2023/09/10 08:08:05;;;;;;;30.50;24.17;;;;;;;22.47;100.00;101675.59;4995059;28;20007;-96
2023/09/10 08:10:32;;;;;;;32.10;23.23;;;;;;;22.54;100.00;101678.69;4998505;28;20101;-96
2023/09/10 08:12:58;;;;;;;30.88;22.80;;;;;;;22.71;100.00;101679.81;4992166;28;20471;-95
2023/09/10 08:15:24;;;;;;;30.77;22.07;;;;;;;22.74;100.00;101668.25;4989977;28;20050;-96
2023/09/10 08:17:51;;;;;;;31.08;21.70;;;;;;;22.91;100.00;101685.78;4984616;28;20023;-96
2023/09/10 08:20:16;;;;;;;32.00;21.23;;;;;;;23.00;100.00;101683.88;4984337;28;20042;-96
2023/09/10 08:22:43;;;;;;;30.60;22.43;;;;;;;23.10;100.00;101682.72;4987740;28;20027;-96
2023/09/10 08:25:08;;;;;;;30.20;21.95;;;;;;;23.22;100.00;101684.81;4986795;28;20026;-96
2023/09/10 08:27:35;;;;;;;29.80;20.40;;;;;;;23.31;100.00;101682.88;4983426;28;20054;-96
2023/09/10 08:30:03;;;;;;;25.92;18.52;;;;;;;23.45;100.00;101674.50;4984312;28;20367;-96
2023/09/10 08:32:29;;;;;;;32.03;20.33;;;;;;;23.51;100.00;101675.13;4985020;28;20030;-96
2023/09/10 08:34:54;;;;;;;28.75;19.27;;;;;;;23.64;100.00;101673.31;4985731;28;20027;-96
2023/09/10 08:37:31;;;;;;;29.67;18.27;;;;;;;23.71;100.00;101676.34;4993349;28;20018;-96
2023/09/10 08:39:58;;;;;;;29.27;17.58;;;;;;;23.78;100.00;101664.88;4991855;28;20050;-95
2023/09/10 08:42:30;;;;;;;27.37;17.50;;;;;;;23.94;100.00;101671.41;4982528;28;20062;-96
2023/09/10 08:45:00;;;;;;;26.27;16.80;;;;;;;24.07;100.00;101677.84;4993653;28;20794;-96
2023/09/10 08:47:25;;;;;;;24.83;16.92;;;;;;;24.20;100.00;101662.31;4988850;28;20023;-96
2023/09/10 08:49:54;;;;;;;24.88;15.80;;;;;;;24.27;100.00;101661.78;4991015;28;20110;-96
2023/09/10 08:52:20;;;;;;;22.75;14.88;;;;;;;24.45;100.00;101678.91;4977482;28;20157;-96
2023/09/10 08:54:45;;;;;;;20.87;13.47;;;;;;;24.49;100.00;101668.88;4998281;28;20099;-96
2023/09/10 08:57:12;;;;;;;18.13;13.57;;;;;;;24.51;100.00;101661.13;4996438;28;20281;-96
2023/09/10 08:59:39;;;;;;;20.08;12.57;;;;;;;24.66;100.00;101673.44;4991238;28;20027;-96
2023/09/10 09:02:05;;;;;;;21.47;12.17;;;;;;;24.77;100.00;101662.91;4996192;28;20050;-96
2023/09/10 09:04:30;;;;;;;21.77;13.60;;;;;;;24.87;100.00;101665.22;4992303;28;20290;-96
2023/09/10 09:07:06;;;;;;;25.83;13.23;;;;;;;24.81;100.00;101650.16;5011569;23;20050;-96
2023/09/10 09:09:39;;;;;;;29.05;13.30;;;;;;;24.88;100.00;101633.94;4992477;28;20030;-96
2023/09/10 09:12:07;;;;;;;18.40;12.20;;;;;;;25.20;100.00;101669.91;4992223;28;20167;-96
2023/09/10 09:14:36;;;;;;;15.07;11.53;;;;;;;25.16;100.00;101647.06;4995501;28;20705;-96
2023/09/10 09:17:02;;;;;;;18.00;11.65;;;;;;;25.42;100.00;101659.72;4966865;28;20430;-96
2023/09/10 09:19:30;;;;;;;18.73;11.07;;;;;;;25.45;100.00;101650.81;4983765;28;20058;-96
2023/09/10 09:21:57;;;;;;;16.90;11.65;;;;;;;25.47;100.00;101640.31;4982913;28;20039;-95
2023/09/10 09:24:24;;;;;;;15.93;11.00;;;;;;;25.54;100.00;101628.78;4985491;28;20109;-96
2023/09/10 09:26:51;;;;;;;18.20;10.90;;;;;;;25.67;100.00;101630.38;4987926;28;20286;-96
2023/09/10 09:29:17;;;;;;;18.52;9.88;;;;;;;26.03;100.00;101665.59;4988439;28;20034;-95
2023/09/10 09:31:42;;;;;;;18.45;10.77;;;;;;;25.95;99.54;101643.44;4989131;28;20022;-95
2023/09/10 09:34:10;;;;;;;15.77;10.17;;;;;;;25.96;98.47;101634.06;4988583;28;20031;-96
2023/09/10 09:36:39;;;;;;;18.88;10.75;;;;;;;26.01;98.84;101627.53;4989360;28;20038;-95
2023/09/10 09:39:07;;;;;;;14.73;10.07;;;;;;;26.12;99.55;101627.88;4992483;28;20051;-95
2023/09/10 09:41:38;;;;;;;16.55;8.75;;;;;;;26.40;98.68;101663.66;4989265;28;20097;-96
2023/09/10 09:44:04;;;;;;;14.37;10.33;;;;;;;26.41;97.15;101637.78;4992282;28;20050;-96
2023/09/10 09:46:33;;;;;;;21.83;10.52;;;;;;;26.41;96.78;101618.56;4991179;28;20030;-95
2023/09/10 09:48:59;;;;;;;16.75;8.90;;;;;;;26.54;97.20;101626.75;4974820;28;20027;-96
2023/09/10 09:51:38;;;;;;;11.57;9.17;;;;;;;26.56;97.04;101627.22;4989252;28;20086;-96
2023/09/10 09:54:03;;;;;;;17.05;10.13;;;;;;;26.64;94.56;101618.03;4992271;28;20025;-96
2023/09/10 09:56:29;;;;;;;17.40;8.77;;;;;;;26.72;93.71;101625.31;4997611;28;20019;-96
2023/09/10 09:58:58;;;;;;;19.50;9.40;;;;;;;27.01;94.60;101645.41;4995982;28;20212;-96
2023/09/10 10:01:24;;;;;;;14.85;8.40;;;;;;;26.89;93.67;101610.50;4995927;28;20003;-96
2023/09/10 10:03:50;;;;;;;13.70;8.40;;;;;;;27.07;92.23;101618.44;4995515;28;20019;-96
2023/09/10 10:06:18;;;;;;;14.50;8.25;;;;;;;27.33;89.43;101648.19;4994199;28;20054;-96
2023/09/10 10:08:50;;;;;;;14.65;8.23;;;;;;;27.16;91.79;101616.31;4988582;28;20023;-96
2023/09/10 10:11:27;;;;;;;12.90;8.18;;;;;;;27.30;87.53;101626.88;4994506;28;20042;-94
2023/09/10 10:13:53;;;;;;;14.23;7.38;;;;;;;27.43;86.74;101646.06;4991697;28;20050;-96
2023/09/10 10:16:20;;;;;;;13.73;8.33;;;;;;;27.51;87.75;101631.34;4994759;28;20090;-96
2023/09/10 10:18:46;;;;;;;13.88;7.07;;;;;;;27.45;82.90;101611.53;4999046;28;20062;-96
2023/09/10 10:21:12;;;;;;;14.43;6.45;;;;;;;27.57;85.87;101607.91;4995194;28;20023;-96
2023/09/10 10:23:40;;;;;;;13.45;7.63;;;;;;;27.70;82.16;101610.56;4995115;28;20039;-96
2023/09/10 10:26:08;;;;;;;12.63;7.07;;;;;;;27.78;81.62;101606.81;4995826;28;20031;-96
2023/09/10 10:28:35;;;;;;;13.70;6.75;;;;;;;27.85;80.92;101606.19;4997134;28;20035;-96
2023/09/10 10:31:15;;;;;;;11.43;6.53;;;;;;;27.90;81.31;101606.72;4996954;28;20027;-96
2023/09/10 10:33:50;;;;;;;13.75;6.30;;;;;;;28.11;78.46;101609.19;4997978;28;20018;-96
2023/09/10 10:36:36;;;;;;;12.38;6.00;;;;;;;28.23;80.02;101616.53;4997980;28;20107;-95
2023/09/10 10:39:09;;;;;;;13.95;6.50;;;;;;;28.35;79.45;101604.56;4995513;28;20026;-96
2023/09/10 10:41:42;;;;;;;10.38;5.95;;;;;;;28.38;75.60;101595.59;4995242;28;20098;-96
2023/09/10 10:44:17;;;;;;;9.40;6.00;;;;;;;28.72;74.68;101630.88;4995453;28;20043;-96
2023/09/10 10:46:43;;;;;;;12.57;6.07;;;;;;;28.82;76.91;101611.03;4995958;28;20305;-94
2023/09/10 10:49:13;;;;;;;9.68;6.25;;;;;;;28.84;75.31;101607.91;4994994;28;20011;-96
2023/09/10 10:51:46;;;;;;;16.05;6.45;;;;;;;29.05;75.63;101621.28;4996063;28;20023;-96
2023/09/10 10:54:16;;;;;;;11.95;5.72;;;;;;;29.15;76.37;101617.13;4996737;28;20070;-96
2023/09/10 10:56:41;;;;;;;15.23;6.47;;;;;;;29.08;73.76;101584.69;4996142;28;20115;-96
2023/09/10 10:59:07;;;;;;;8.97;5.87;;;;;;;29.41;72.24;101616.41;4997882;28;20040;-96
2023/09/10 11:01:36;;;;;;;9.68;5.97;;;;;;;29.39;71.50;101584.84;4997010;28;20026;-96
2023/09/10 11:04:31;;;;;;;15.48;6.60;;;;;;;29.53;73.65;101585.06;4996296;28;20023;-96
2023/09/10 11:07:20;;;;;;;17.20;6.20;;;;;;;29.68;72.88;101583.31;4979088;28;20050;-96
2023/09/10 11:09:48;;;;;;;11.57;6.10;;;;;;;29.68;70.17;101582.50;4996283;28;20347;-96
2023/09/10 11:12:14;;;;;;;10.40;6.47;;;;;;;29.73;68.49;101577.47;4997000;28;20010;-96
2023/09/10 11:14:58;;;;;;;17.58;6.07;;;;;;;30.12;70.63;101614.34;4997096;28;20023;-96
2023/09/10 11:27:46;;;;;;;13.23;6.60;;;;;;;30.21;66.04;101595.50;5001257;23;20033;-96
2023/09/10 11:35:21;;;;;;;10.90;5.93;;;;;;;30.39;65.97;101568.09;5013927;28;20042;-96
2023/09/10 11:58:28;;;;;;;11.48;6.03;;;;;;;31.09;61.31;101554.59;4969354;26;20038;-96
2023/09/10 12:00:54;;;;;;;13.35;6.28;;;;;;;31.43;61.06;101595.19;4970489;29;20106;-96
2023/09/10 12:03:21;;;;;;;11.83;5.93;;;;;;;31.47;59.80;101579.41;4969568;29;20027;-96
2023/09/10 12:05:47;;;;;;;11.07;6.03;;;;;;;31.35;59.05;101554.81;4987495;28;20038;-96
2023/09/10 12:08:12;;;;;;;14.40;6.67;;;;;;;31.75;59.79;101558.66;4988309;28;20023;-96
2023/09/10 12:10:39;;;;;;;10.95;6.07;;;;;;;32.29;57.04;101588.63;4991907;28;20055;-96
2023/09/10 12:13:08;;;;;;;14.75;6.60;;;;;;;32.08;56.58;101561.56;4993234;28;20042;-96
2023/09/10 12:15:36;;;;;;;11.05;6.40;;;;;;;32.29;57.31;101566.44;4994402;28;20045;-96
2023/09/10 12:18:05;;;;;;;8.60;6.20;;;;;;;32.41;54.10;101568.06;4994850;28;20099;-96
2023/09/10 12:30:52;;;;;;;10.80;6.37;;;;;;;32.56;54.74;101552.25;5048363;23;20047;-94
2023/09/10 12:33:21;;;;;;;10.80;6.50;;;;;;;32.89;54.74;101576.09;4996965;28;20320;-96
2023/09/10 12:35:47;;;;;;;15.02;6.10;;;;;;;32.91;52.79;101545.19;4999773;28;20019;-96
2023/09/10 12:40:51;;;;;;;12.05;5.90;;;;;;;33.07;51.68;101542.78;5010329;23;20054;-96
2023/09/10 12:43:25;;;;;;;13.50;6.32;;;;;;;33.18;51.72;101556.66;4999092;28;20029;-96
2023/09/10 12:45:51;;;;;;;13.57;6.20;;;;;;;32.98;50.98;101534.09;4999670;28;20121;-96
2023/09/10 13:19:16;;;;;;;8.07;5.43;;;;;;;33.43;48.52;101524.53;4935375;29;19914;-96
2023/09/10 13:21:41;;;;;;;10.52;5.90;;;;;;;33.51;46.64;101540.78;4938309;29;20043;-96
2023/09/10 13:24:07;;;;;;;11.93;5.57;;;;;;;33.47;49.74;101514.22;4952361;29;20027;-96
2023/09/10 13:26:33;;;;;;;13.67;5.90;;;;;;;33.59;48.36;101516.56;4954281;29;20024;-96
2023/09/10 13:28:58;;;;;;;10.13;6.18;;;;;;;33.56;47.49;101522.94;4957094;29;20030;-96
2023/09/10 13:31:34;;;;;;;13.83;5.50;;;;;;;33.45;49.68;101499.94;4958973;29;20019;-96
2023/09/10 13:34:00;;;;;;;12.25;5.82;;;;;;;33.40;48.88;101503.91;4957300;29;20035;-96
2023/09/10 13:36:27;;;;;;;12.43;5.70;;;;;;;33.01;47.47;101488.91;5271082;23;21484;-96